Aiken, TX

5:31 AM CDT on August 26, 2019 (GMT -0500)
Hale County | | Change Station
Active Advisory: Heat Advisory

Elev 3373 ft 34.17 °N, 101.72 °W | Updated 16 minutes ago

Clear
Clear
64 °F
Feels Like 64 °F
N
5
Wind Variable Wind from South

Today
High -- | Low -- °F
--% Chance of Precip.
Yesterday
High -- | Low -- °F
Precip. -- in
Pressure 29.79 in
Visibility 10.0 miles
Clouds Clear
Dew Point 59 °F
Humidity 82%
Rainfall 0.00 in
Snow Depth Not available.
7:15 AM 8:20 PM
Waning Crescent, 21% visible
METAR KPVW 261015Z AUTO 17004KT 10SM CLR 18/15 A2979 RMK AO2 T01800149
Pressure 29.79 in
Visibility 10.0 miles
Clouds Clear
Dew Point 59 °F
Humidity 82%
Rainfall 0.00 in
Snow Depth Not available.
7:15 AM 8:20 PM
Waning Crescent, 21% visible
METAR KPVW 261015Z AUTO 17004KT 10SM CLR 18/15 A2979 RMK AO2 T01800149

Get Your Daily Forecast Email!

Thanks for signing up!

Be on the lookout for a verification email in your inbox.

You'll start receiving severe weather alerts in your inbox..

×

10-Day Weather Forecast

Almanac

Astronomy

Aug. 26, 2019 Rise Set
Actual Time
Civil Twilight
Nautical Twilight
Astronomical Twilight
Moon
Length of Visible Light
Length of Day
Tomorrow will be .
, % of the Moon is Illuminated

Today's Extremes

State Highs State Lows

Community

WunderPhotos

Category 6

Welcome to Category 6. This is the collective home for Weather Underground's featured writeups by Dr. Jeff Masters (right), Bob Henson (left), Chris Burt, and other regular contributors.

Nearby

Air Quality

  Air Quality AQ Index Pollutant
Not available.

Snow Depth

Station Depth Elevation

Earthquake Activity

City Distance Mag. Time & Date
Minimum magnitude displayed is 2.5.

Coastal Water Temperatures

Place Temperature

Stations

Nearby Weather Stations

Station Location Temp. Windchill Dew Point Humidity Wind Precip. Elev Updated Type
                   

Watches & Warnings

Heat Advisory
Issued: 3:04 AM CDT Aug. 26, 2019 – National Weather Service

... Heat advisory remains in effect from 1 PM this afternoon to
8 PM CDT this evening...

* temperature... highs will peak around 105 to 109 degrees.

* Impacts... excessive heat may cause heat stress during outdoor
exertion or extended exposure. Children, the elderly, and
people with chronic ailments are usually the first to suffer
from the heat related illness.

Precautionary/preparedness actions...

A heat advisory means a period of hot temperatures is expected or
already occurring.

Take extra precautions if you work or spend time outside. If
possible, reschedule activities to early morning or evening. Know
the signs and symptoms of heat exhaustion and heat stroke. Wear
light weight and loose fitting clothing, stay in an air-
conditioned room, stay out of the sun, check up on relatives and
neighbors, and drink plenty of water.

Anyone overcome by heat should be moved to a cool and shaded
location. Heat stroke is an emergency, call 9 1 1.